sensor_id;sensor_type;location;lat;lon;timestamp;P1;durP1;ratioP1;P2;durP2;ratioP2
7703;SDS011;3894;49.700;10.770;2023-04-30T00:00:43;10.32;;;4.82;;
7703;SDS011;3894;49.700;10.770;2023-04-30T00:03:25;9.48;;;4.40;;
7703;SDS011;3894;49.700;10.770;2023-04-30T00:05:53;10.32;;;4.93;;
7703;SDS011;3894;49.700;10.770;2023-04-30T00:08:27;10.65;;;4.72;;
7703;SDS011;3894;49.700;10.770;2023-04-30T00:10:55;9.90;;;4.80;;
7703;SDS011;3894;49.700;10.770;2023-04-30T00:13:38;11.98;;;5.22;;
7703;SDS011;3894;49.700;10.770;2023-04-30T00:16:08;11.90;;;5.38;;
7703;SDS011;3894;49.700;10.770;2023-04-30T00:18:55;9.07;;;4.55;;
7703;SDS011;3894;49.700;10.770;2023-04-30T00:21:35;9.10;;;5.18;;
7703;SDS011;3894;49.700;10.770;2023-04-30T00:24:03;9.77;;;5.38;;
7703;SDS011;3894;49.700;10.770;2023-04-30T00:26:31;10.70;;;5.00;;
7703;SDS011;3894;49.700;10.770;2023-04-30T00:29:03;10.13;;;5.80;;
7703;SDS011;3894;49.700;10.770;2023-04-30T00:31:40;11.23;;;5.40;;
7703;SDS011;3894;49.700;10.770;2023-04-30T00:34:12;10.90;;;5.65;;
7703;SDS011;3894;49.700;10.770;2023-04-30T00:36:41;10.73;;;5.00;;
7703;SDS011;3894;49.700;10.770;2023-04-30T00:39:07;10.77;;;5.10;;
7703;SDS011;3894;49.700;10.770;2023-04-30T00:41:38;12.65;;;5.32;;
7703;SDS011;3894;49.700;10.770;2023-04-30T00:44:26;10.35;;;5.68;;
7703;SDS011;3894;49.700;10.770;2023-04-30T00:46:51;8.20;;;4.95;;
7703;SDS011;3894;49.700;10.770;2023-04-30T00:49:20;9.00;;;4.82;;
7703;SDS011;3894;49.700;10.770;2023-04-30T00:51:59;11.27;;;4.85;;
7703;SDS011;3894;49.700;10.770;2023-04-30T00:54:37;12.07;;;5.47;;
7703;SDS011;3894;49.700;10.770;2023-04-30T00:57:28;10.05;;;5.00;;
7703;SDS011;3894;49.700;10.770;2023-04-30T01:00:30;10.70;;;5.43;;
7703;SDS011;3894;49.700;10.770;2023-04-30T01:03:06;10.25;;;4.68;;
7703;SDS011;3894;49.700;10.770;2023-04-30T01:05:36;9.48;;;4.72;;
7703;SDS011;3894;49.700;10.770;2023-04-30T01:17:01;10.38;;;5.03;;
7703;SDS011;3894;49.700;10.770;2023-04-30T01:19:46;9.88;;;5.10;;
7703;SDS011;3894;49.700;10.770;2023-04-30T01:25:43;10.50;;;4.95;;
7703;SDS011;3894;49.700;10.770;2023-04-30T01:28:37;11.32;;;5.45;;
7703;SDS011;3894;49.700;10.770;2023-04-30T01:31:22;11.82;;;5.40;;
7703;SDS011;3894;49.700;10.770;2023-04-30T01:33:55;9.57;;;5.05;;
7703;SDS011;3894;49.700;10.770;2023-04-30T01:42:32;10.38;;;5.22;;
7703;SDS011;3894;49.700;10.770;2023-04-30T01:48:44;11.43;;;5.13;;
7703;SDS011;3894;49.700;10.770;2023-04-30T01:51:43;12.07;;;5.78;;
7703;SDS011;3894;49.700;10.770;2023-04-30T02:01:11;10.60;;;5.03;;
7703;SDS011;3894;49.700;10.770;2023-04-30T02:03:16;12.43;;;5.20;;
7703;SDS011;3894;49.700;10.770;2023-04-30T02:06:05;9.90;;;4.47;;
7703;SDS011;3894;49.700;10.770;2023-04-30T02:08:47;11.98;;;5.40;;
7703;SDS011;3894;49.700;10.770;2023-04-30T02:11:28;10.60;;;5.32;;
7703;SDS011;3894;49.700;10.770;2023-04-30T02:13:57;9.60;;;5.00;;
7703;SDS011;3894;49.700;10.770;2023-04-30T02:16:36;11.32;;;4.88;;
7703;SDS011;3894;49.700;10.770;2023-04-30T02:19:13;9.70;;;5.22;;
7703;SDS011;3894;49.700;10.770;2023-04-30T02:21:45;11.20;;;5.10;;
7703;SDS011;3894;49.700;10.770;2023-04-30T02:24:13;10.60;;;5.43;;
7703;SDS011;3894;49.700;10.770;2023-04-30T02:26:39;9.95;;;4.95;;
7703;SDS011;3894;49.700;10.770;2023-04-30T02:29:14;10.18;;;4.90;;
7703;SDS011;3894;49.700;10.770;2023-04-30T02:31:52;10.93;;;5.07;;
7703;SDS011;3894;49.700;10.770;2023-04-30T02:34:34;9.80;;;4.85;;
7703;SDS011;3894;49.700;10.770;2023-04-30T02:37:18;11.85;;;5.32;;
7703;SDS011;3894;49.700;10.770;2023-04-30T02:39:52;11.13;;;5.32;;
7703;SDS011;3894;49.700;10.770;2023-04-30T02:42:21;10.20;;;5.60;;
7703;SDS011;3894;49.700;10.770;2023-04-30T02:44:47;13.68;;;5.45;;
7703;SDS011;3894;49.700;10.770;2023-04-30T02:47:21;11.60;;;5.50;;
7703;SDS011;3894;49.700;10.770;2023-04-30T02:49:56;12.30;;;4.80;;
7703;SDS011;3894;49.700;10.770;2023-04-30T02:52:31;11.73;;;5.70;;
7703;SDS011;3894;49.700;10.770;2023-04-30T02:54:56;11.50;;;4.93;;
7703;SDS011;3894;49.700;10.770;2023-04-30T02:57:34;12.68;;;6.13;;
7703;SDS011;3894;49.700;10.770;2023-04-30T03:00:18;11.20;;;6.25;;
7703;SDS011;3894;49.700;10.770;2023-04-30T03:02:50;11.23;;;6.25;;
7703;SDS011;3894;49.700;10.770;2023-04-30T03:05:18;12.63;;;5.65;;
7703;SDS011;3894;49.700;10.770;2023-04-30T03:07:52;14.07;;;5.78;;
7703;SDS011;3894;49.700;10.770;2023-04-30T03:10:26;11.38;;;6.35;;
7703;SDS011;3894;49.700;10.770;2023-04-30T03:12:58;10.80;;;5.38;;
7703;SDS011;3894;49.700;10.770;2023-04-30T03:15:35;10.50;;;5.90;;
7703;SDS011;3894;49.700;10.770;2023-04-30T03:18:10;11.65;;;5.50;;
7703;SDS011;3894;49.700;10.770;2023-04-30T03:23:40;11.93;;;5.40;;
7703;SDS011;3894;49.700;10.770;2023-04-30T03:26:25;14.27;;;6.05;;
7703;SDS011;3894;49.700;10.770;2023-04-30T03:28:56;13.02;;;6.30;;
7703;SDS011;3894;49.700;10.770;2023-04-30T03:36:58;12.30;;;6.03;;
7703;SDS011;3894;49.700;10.770;2023-04-30T03:39:34;11.73;;;5.70;;
7703;SDS011;3894;49.700;10.770;2023-04-30T03:42:11;12.98;;;6.30;;
7703;SDS011;3894;49.700;10.770;2023-04-30T03:44:52;13.55;;;6.15;;
7703;SDS011;3894;49.700;10.770;2023-04-30T03:47:27;13.32;;;5.95;;
7703;SDS011;3894;49.700;10.770;2023-04-30T03:49:58;12.02;;;6.30;;
7703;SDS011;3894;49.700;10.770;2023-04-30T03:52:34;11.55;;;6.22;;
7703;SDS011;3894;49.700;10.770;2023-04-30T03:55:12;12.52;;;6.10;;
7703;SDS011;3894;49.700;10.770;2023-04-30T03:57:57;12.48;;;6.57;;
7703;SDS011;3894;49.700;10.770;2023-04-30T04:00:36;13.80;;;7.50;;
7703;SDS011;3894;49.700;10.770;2023-04-30T04:03:25;13.65;;;7.28;;
7703;SDS011;3894;49.700;10.770;2023-04-30T04:05:54;16.58;;;8.18;;
7703;SDS011;3894;49.700;10.770;2023-04-30T04:08:20;17.27;;;8.38;;
7703;SDS011;3894;49.700;10.770;2023-04-30T04:11:06;14.50;;;7.75;;
7703;SDS011;3894;49.700;10.770;2023-04-30T04:16:32;15.48;;;7.25;;
7703;SDS011;3894;49.700;10.770;2023-04-30T04:18:58;13.35;;;6.32;;
7703;SDS011;3894;49.700;10.770;2023-04-30T04:21:34;14.68;;;7.40;;
7703;SDS011;3894;49.700;10.770;2023-04-30T04:24:11;13.07;;;7.00;;
7703;SDS011;3894;49.700;10.770;2023-04-30T04:26:42;15.25;;;8.05;;
7703;SDS011;3894;49.700;10.770;2023-04-30T04:29:23;14.38;;;7.32;;
7703;SDS011;3894;49.700;10.770;2023-04-30T04:32:04;15.00;;;6.78;;
7703;SDS011;3894;49.700;10.770;2023-04-30T04:37:05;14.05;;;7.05;;
7703;SDS011;3894;49.700;10.770;2023-04-30T04:39:54;11.18;;;6.10;;
7703;SDS011;3894;49.700;10.770;2023-04-30T04:42:28;13.23;;;7.18;;
7703;SDS011;3894;49.700;10.770;2023-04-30T04:45:03;14.90;;;7.28;;
7703;SDS011;3894;49.700;10.770;2023-04-30T04:47:39;15.77;;;7.80;;
7703;SDS011;3894;49.700;10.770;2023-04-30T04:50:13;15.38;;;7.30;;
7703;SDS011;3894;49.700;10.770;2023-04-30T04:53:17;14.75;;;7.50;;
7703;SDS011;3894;49.700;10.770;2023-04-30T04:56:17;11.73;;;6.32;;
7703;SDS011;3894;49.700;10.770;2023-04-30T04:58:43;12.65;;;6.78;;
7703;SDS011;3894;49.700;10.770;2023-04-30T05:01:22;12.35;;;6.10;;
7703;SDS011;3894;49.700;10.770;2023-04-30T05:03:58;15.80;;;6.50;;
7703;SDS011;3894;49.700;10.770;2023-04-30T05:06:40;13.25;;;6.38;;
7703;SDS011;3894;49.700;10.770;2023-04-30T05:09:22;12.57;;;6.45;;
7703;SDS011;3894;49.700;10.770;2023-04-30T05:11:51;13.40;;;6.40;;
7703;SDS011;3894;49.700;10.770;2023-04-30T05:14:22;13.13;;;5.95;;
7703;SDS011;3894;49.700;10.770;2023-04-30T05:17:14;12.38;;;6.35;;
7703;SDS011;3894;49.700;10.770;2023-04-30T05:19:43;11.55;;;5.70;;
7703;SDS011;3894;49.700;10.770;2023-04-30T05:22:26;14.05;;;6.45;;
7703;SDS011;3894;49.700;10.770;2023-04-30T05:24:55;13.20;;;5.50;;
7703;SDS011;3894;49.700;10.770;2023-04-30T05:29:57;12.10;;;5.82;;
7703;SDS011;3894;49.700;10.770;2023-04-30T05:32:25;15.40;;;7.50;;
7703;SDS011;3894;49.700;10.770;2023-04-30T05:34:54;12.43;;;6.82;;
7703;SDS011;3894;49.700;10.770;2023-04-30T05:37:20;12.02;;;5.85;;
7703;SDS011;3894;49.700;10.770;2023-04-30T05:39:54;12.32;;;5.68;;
7703;SDS011;3894;49.700;10.770;2023-04-30T05:42:33;12.20;;;5.93;;
7703;SDS011;3894;49.700;10.770;2023-04-30T05:45:04;10.98;;;4.90;;
7703;SDS011;3894;49.700;10.770;2023-04-30T05:50:15;12.00;;;5.57;;
7703;SDS011;3894;49.700;10.770;2023-04-30T05:52:50;11.73;;;5.55;;
7703;SDS011;3894;49.700;10.770;2023-04-30T05:55:28;12.77;;;5.50;;
7703;SDS011;3894;49.700;10.770;2023-04-30T05:58:02;12.32;;;6.25;;
7703;SDS011;3894;49.700;10.770;2023-04-30T06:00:59;12.20;;;6.30;;
7703;SDS011;3894;49.700;10.770;2023-04-30T06:03:41;18.42;;;5.15;;
7703;SDS011;3894;49.700;10.770;2023-04-30T06:06:24;12.32;;;5.55;;
7703;SDS011;3894;49.700;10.770;2023-04-30T06:08:59;11.38;;;4.95;;
7703;SDS011;3894;49.700;10.770;2023-04-30T06:11:40;12.55;;;5.30;;
7703;SDS011;3894;49.700;10.770;2023-04-30T06:14:15;10.85;;;4.63;;
7703;SDS011;3894;49.700;10.770;2023-04-30T06:19:43;8.85;;;4.03;;
7703;SDS011;3894;49.700;10.770;2023-04-30T06:22:28;9.27;;;4.68;;
7703;SDS011;3894;49.700;10.770;2023-04-30T06:24:57;10.00;;;4.65;;
7703;SDS011;3894;49.700;10.770;2023-04-30T06:27:35;9.20;;;4.32;;
7703;SDS011;3894;49.700;10.770;2023-04-30T06:30:01;9.73;;;4.20;;
7703;SDS011;3894;49.700;10.770;2023-04-30T06:32:39;10.27;;;4.00;;
7703;SDS011;3894;49.700;10.770;2023-04-30T06:35:11;9.65;;;4.20;;
7703;SDS011;3894;49.700;10.770;2023-04-30T06:37:59;9.73;;;4.43;;
7703;SDS011;3894;49.700;10.770;2023-04-30T06:40:28;10.10;;;4.20;;
7703;SDS011;3894;49.700;10.770;2023-04-30T06:42:56;9.13;;;4.30;;
7703;SDS011;3894;49.700;10.770;2023-04-30T06:45:34;11.00;;;4.38;;
7703;SDS011;3894;49.700;10.770;2023-04-30T06:48:22;8.25;;;3.63;;
7703;SDS011;3894;49.700;10.770;2023-04-30T06:50:51;11.07;;;4.25;;
7703;SDS011;3894;49.700;10.770;2023-04-30T06:53:17;10.32;;;4.30;;
7703;SDS011;3894;49.700;10.770;2023-04-30T06:55:52;9.52;;;4.03;;
7703;SDS011;3894;49.700;10.770;2023-04-30T06:58:21;10.65;;;4.28;;
7703;SDS011;3894;49.700;10.770;2023-04-30T07:00:59;8.43;;;3.22;;
7703;SDS011;3894;49.700;10.770;2023-04-30T07:03:30;9.73;;;4.43;;
7703;SDS011;3894;49.700;10.770;2023-04-30T07:06:19;9.35;;;4.00;;
7703;SDS011;3894;49.700;10.770;2023-04-30T07:08:54;7.20;;;3.60;;
7703;SDS011;3894;49.700;10.770;2023-04-30T07:11:20;8.32;;;4.03;;
7703;SDS011;3894;49.700;10.770;2023-04-30T07:13:45;8.75;;;3.60;;
7703;SDS011;3894;49.700;10.770;2023-04-30T07:16:11;7.03;;;3.13;;
7703;SDS011;3894;49.700;10.770;2023-04-30T07:18:36;7.22;;;3.40;;
7703;SDS011;3894;49.700;10.770;2023-04-30T07:21:02;6.72;;;3.42;;
7703;SDS011;3894;49.700;10.770;2023-04-30T07:23:28;7.65;;;2.95;;
7703;SDS011;3894;49.700;10.770;2023-04-30T07:25:53;10.27;;;3.17;;
7703;SDS011;3894;49.700;10.770;2023-04-30T07:28:19;7.00;;;2.92;;
7703;SDS011;3894;49.700;10.770;2023-04-30T07:30:44;8.10;;;3.42;;
7703;SDS011;3894;49.700;10.770;2023-04-30T07:33:11;8.27;;;3.42;;
7703;SDS011;3894;49.700;10.770;2023-04-30T07:35:36;7.40;;;3.22;;
7703;SDS011;3894;49.700;10.770;2023-04-30T07:38:02;8.00;;;3.42;;
7703;SDS011;3894;49.700;10.770;2023-04-30T07:40:29;7.47;;;3.45;;
7703;SDS011;3894;49.700;10.770;2023-04-30T07:42:55;6.57;;;3.30;;
7703;SDS011;3894;49.700;10.770;2023-04-30T07:45:20;6.70;;;3.60;;
7703;SDS011;3894;49.700;10.770;2023-04-30T07:47:46;7.88;;;2.88;;
7703;SDS011;3894;49.700;10.770;2023-04-30T07:50:12;9.10;;;3.15;;
7703;SDS011;3894;49.700;10.770;2023-04-30T07:52:39;7.32;;;3.03;;
7703;SDS011;3894;49.700;10.770;2023-04-30T07:55:05;6.75;;;3.10;;
7703;SDS011;3894;49.700;10.770;2023-04-30T07:57:31;7.15;;;2.72;;
7703;SDS011;3894;49.700;10.770;2023-04-30T07:59:56;7.88;;;2.70;;
7703;SDS011;3894;49.700;10.770;2023-04-30T08:02:23;7.28;;;2.95;;
7703;SDS011;3894;49.700;10.770;2023-04-30T08:04:48;5.72;;;2.10;;
7703;SDS011;3894;49.700;10.770;2023-04-30T08:07:14;6.68;;;3.20;;
7703;SDS011;3894;49.700;10.770;2023-04-30T08:09:40;5.25;;;2.28;;
7703;SDS011;3894;49.700;10.770;2023-04-30T08:12:05;7.28;;;2.42;;
7703;SDS011;3894;49.700;10.770;2023-04-30T08:14:32;6.70;;;2.22;;
7703;SDS011;3894;49.700;10.770;2023-04-30T08:16:58;5.03;;;2.17;;
7703;SDS011;3894;49.700;10.770;2023-04-30T08:19:24;6.57;;;2.75;;
7703;SDS011;3894;49.700;10.770;2023-04-30T08:21:50;5.50;;;2.33;;
7703;SDS011;3894;49.700;10.770;2023-04-30T08:24:16;6.22;;;2.45;;
7703;SDS011;3894;49.700;10.770;2023-04-30T08:26:42;5.60;;;2.30;;
7703;SDS011;3894;49.700;10.770;2023-04-30T08:29:07;6.78;;;2.38;;
7703;SDS011;3894;49.700;10.770;2023-04-30T08:31:33;6.07;;;2.15;;
7703;SDS011;3894;49.700;10.770;2023-04-30T08:33:59;4.60;;;1.40;;
7703;SDS011;3894;49.700;10.770;2023-04-30T08:36:24;5.22;;;2.05;;
7703;SDS011;3894;49.700;10.770;2023-04-30T08:38:53;5.15;;;1.17;;
7703;SDS011;3894;49.700;10.770;2023-04-30T08:41:21;5.35;;;1.52;;
7703;SDS011;3894;49.700;10.770;2023-04-30T08:43:51;4.85;;;1.45;;
7703;SDS011;3894;49.700;10.770;2023-04-30T08:46:19;5.28;;;1.52;;
7703;SDS011;3894;49.700;10.770;2023-04-30T08:48:45;4.82;;;1.23;;
7703;SDS011;3894;49.700;10.770;2023-04-30T08:51:13;4.53;;;1.80;;
7703;SDS011;3894;49.700;10.770;2023-04-30T08:53:39;4.45;;;1.50;;
7703;SDS011;3894;49.700;10.770;2023-04-30T08:56:08;4.55;;;1.38;;
7703;SDS011;3894;49.700;10.770;2023-04-30T08:58:35;4.50;;;1.42;;
7703;SDS011;3894;49.700;10.770;2023-04-30T09:01:01;5.88;;;1.40;;
7703;SDS011;3894;49.700;10.770;2023-04-30T09:03:29;4.55;;;1.48;;
7703;SDS011;3894;49.700;10.770;2023-04-30T09:05:55;4.70;;;0.93;;
7703;SDS011;3894;49.700;10.770;2023-04-30T09:08:39;4.10;;;0.82;;
7703;SDS011;3894;49.700;10.770;2023-04-30T09:11:28;4.07;;;0.93;;
7703;SDS011;3894;49.700;10.770;2023-04-30T09:16:25;4.13;;;0.85;;
7703;SDS011;3894;49.700;10.770;2023-04-30T09:18:52;3.25;;;0.82;;
7703;SDS011;3894;49.700;10.770;2023-04-30T09:21:30;4.30;;;1.00;;
7703;SDS011;3894;49.700;10.770;2023-04-30T09:24:00;4.82;;;0.77;;
7703;SDS011;3894;49.700;10.770;2023-04-30T09:26:31;3.83;;;1.10;;
7703;SDS011;3894;49.700;10.770;2023-04-30T09:29:01;3.92;;;0.75;;
7703;SDS011;3894;49.700;10.770;2023-04-30T09:31:32;5.05;;;1.05;;
7703;SDS011;3894;49.700;10.770;2023-04-30T09:36:24;3.55;;;0.82;;
7703;SDS011;3894;49.700;10.770;2023-04-30T09:38:51;3.60;;;0.65;;
7703;SDS011;3894;49.700;10.770;2023-04-30T09:41:21;2.67;;;0.60;;
7703;SDS011;3894;49.700;10.770;2023-04-30T09:43:48;3.25;;;0.63;;
7703;SDS011;3894;49.700;10.770;2023-04-30T09:46:14;3.47;;;0.88;;
7703;SDS011;3894;49.700;10.770;2023-04-30T09:48:42;5.35;;;0.65;;
7703;SDS011;3894;49.700;10.770;2023-04-30T09:51:08;5.88;;;1.05;;
7703;SDS011;3894;49.700;10.770;2023-04-30T09:53:36;3.72;;;0.82;;
7703;SDS011;3894;49.700;10.770;2023-04-30T09:56:04;2.75;;;0.60;;
7703;SDS011;3894;49.700;10.770;2023-04-30T09:58:34;4.10;;;0.73;;
7703;SDS011;3894;49.700;10.770;2023-04-30T10:01:02;3.58;;;0.60;;
7703;SDS011;3894;49.700;10.770;2023-04-30T10:03:31;2.83;;;0.35;;
7703;SDS011;3894;49.700;10.770;2023-04-30T10:05:57;2.45;;;0.30;;
7703;SDS011;3894;49.700;10.770;2023-04-30T10:08:25;5.28;;;0.70;;
7703;SDS011;3894;49.700;10.770;2023-04-30T10:11:00;4.03;;;0.73;;
7703;SDS011;3894;49.700;10.770;2023-04-30T10:13:28;4.07;;;0.75;;
7703;SDS011;3894;49.700;10.770;2023-04-30T10:15:57;3.85;;;0.82;;
7703;SDS011;3894;49.700;10.770;2023-04-30T10:18:30;3.03;;;0.50;;
7703;SDS011;3894;49.700;10.770;2023-04-30T10:20:58;2.90;;;0.60;;
7703;SDS011;3894;49.700;10.770;2023-04-30T10:23:28;4.97;;;0.55;;
7703;SDS011;3894;49.700;10.770;2023-04-30T10:25:55;2.70;;;0.50;;
7703;SDS011;3894;49.700;10.770;2023-04-30T10:28:22;3.10;;;0.40;;
7703;SDS011;3894;49.700;10.770;2023-04-30T10:30:48;3.35;;;0.45;;
7703;SDS011;3894;49.700;10.770;2023-04-30T10:35:51;2.25;;;0.20;;
7703;SDS011;3894;49.700;10.770;2023-04-30T10:38:23;2.80;;;0.40;;
7703;SDS011;3894;49.700;10.770;2023-04-30T10:40:53;2.65;;;0.30;;
7703;SDS011;3894;49.700;10.770;2023-04-30T10:43:22;2.40;;;0.30;;
7703;SDS011;3894;49.700;10.770;2023-04-30T10:45:48;3.63;;;0.50;;
7703;SDS011;3894;49.700;10.770;2023-04-30T10:48:15;2.70;;;0.35;;
7703;SDS011;3894;49.700;10.770;2023-04-30T10:50:49;2.40;;;0.40;;
7703;SDS011;3894;49.700;10.770;2023-04-30T10:53:22;2.40;;;0.40;;
7703;SDS011;3894;49.700;10.770;2023-04-30T10:55:56;2.20;;;0.43;;
7703;SDS011;3894;49.700;10.770;2023-04-30T10:58:31;3.42;;;0.52;;
7703;SDS011;3894;49.700;10.770;2023-04-30T11:04:03;2.30;;;0.52;;
7703;SDS011;3894;49.700;10.770;2023-04-30T11:06:47;2.78;;;0.55;;
7703;SDS011;3894;49.700;10.770;2023-04-30T11:09:16;3.15;;;0.40;;
7703;SDS011;3894;49.700;10.770;2023-04-30T11:11:45;3.55;;;0.52;;
7703;SDS011;3894;49.700;10.770;2023-04-30T11:14:19;2.80;;;0.70;;
7703;SDS011;3894;49.700;10.770;2023-04-30T11:16:47;3.03;;;0.45;;
7703;SDS011;3894;49.700;10.770;2023-04-30T11:19:14;3.67;;;1.10;;
7703;SDS011;3894;49.700;10.770;2023-04-30T11:21:40;2.42;;;0.43;;
7703;SDS011;3894;49.700;10.770;2023-04-30T11:27:21;3.92;;;0.60;;
7703;SDS011;3894;49.700;10.770;2023-04-30T11:29:48;2.58;;;0.40;;
7703;SDS011;3894;49.700;10.770;2023-04-30T11:32:16;2.95;;;0.65;;
7703;SDS011;3894;49.700;10.770;2023-04-30T11:34:43;3.90;;;0.50;;
7703;SDS011;3894;49.700;10.770;2023-04-30T11:37:11;2.60;;;0.47;;
7703;SDS011;3894;49.700;10.770;2023-04-30T11:39:38;4.97;;;0.82;;
7703;SDS011;3894;49.700;10.770;2023-04-30T11:42:06;2.75;;;0.40;;
7703;SDS011;3894;49.700;10.770;2023-04-30T11:44:32;2.20;;;0.40;;
7703;SDS011;3894;49.700;10.770;2023-04-30T11:46:58;2.35;;;0.43;;
7703;SDS011;3894;49.700;10.770;2023-04-30T11:49:25;3.20;;;0.52;;
7703;SDS011;3894;49.700;10.770;2023-04-30T11:51:51;2.60;;;0.50;;
7703;SDS011;3894;49.700;10.770;2023-04-30T11:54:17;2.20;;;0.50;;
7703;SDS011;3894;49.700;10.770;2023-04-30T11:56:47;2.40;;;0.60;;
7703;SDS011;3894;49.700;10.770;2023-04-30T11:59:13;2.78;;;0.60;;
7703;SDS011;3894;49.700;10.770;2023-04-30T12:01:39;2.70;;;0.50;;
7703;SDS011;3894;49.700;10.770;2023-04-30T12:04:05;1.90;;;0.28;;
7703;SDS011;3894;49.700;10.770;2023-04-30T12:06:33;2.80;;;0.35;;
7703;SDS011;3894;49.700;10.770;2023-04-30T12:09:00;2.15;;;0.70;;
7703;SDS011;3894;49.700;10.770;2023-04-30T12:11:50;3.67;;;0.30;;
7703;SDS011;3894;49.700;10.770;2023-04-30T12:14:15;2.95;;;0.30;;
7703;SDS011;3894;49.700;10.770;2023-04-30T12:16:45;2.50;;;0.30;;
7703;SDS011;3894;49.700;10.770;2023-04-30T12:19:15;3.35;;;0.30;;
7703;SDS011;3894;49.700;10.770;2023-04-30T12:21:42;1.95;;;0.38;;
7703;SDS011;3894;49.700;10.770;2023-04-30T12:24:14;2.17;;;0.40;;
7703;SDS011;3894;49.700;10.770;2023-04-30T12:26:41;1.98;;;0.22;;
7703;SDS011;3894;49.700;10.770;2023-04-30T12:29:25;2.45;;;0.80;;
7703;SDS011;3894;49.700;10.770;2023-04-30T12:31:50;2.08;;;0.20;;
7703;SDS011;3894;49.700;10.770;2023-04-30T12:34:17;2.83;;;0.52;;
7703;SDS011;3894;49.700;10.770;2023-04-30T12:36:43;2.88;;;0.30;;
7703;SDS011;3894;49.700;10.770;2023-04-30T12:39:10;3.05;;;0.82;;
7703;SDS011;3894;49.700;10.770;2023-04-30T12:41:40;2.22;;;0.30;;
7703;SDS011;3894;49.700;10.770;2023-04-30T12:44:21;1.77;;;0.30;;
7703;SDS011;3894;49.700;10.770;2023-04-30T12:46:51;2.78;;;0.40;;
7703;SDS011;3894;49.700;10.770;2023-04-30T12:49:32;2.55;;;0.40;;
7703;SDS011;3894;49.700;10.770;2023-04-30T12:52:01;3.15;;;0.35;;
7703;SDS011;3894;49.700;10.770;2023-04-30T12:54:32;1.42;;;0.20;;
7703;SDS011;3894;49.700;10.770;2023-04-30T12:57:18;3.60;;;0.35;;
7703;SDS011;3894;49.700;10.770;2023-04-30T12:59:59;2.40;;;0.32;;
7703;SDS011;3894;49.700;10.770;2023-04-30T13:02:26;1.90;;;0.30;;
7703;SDS011;3894;49.700;10.770;2023-04-30T13:04:53;2.65;;;0.45;;
7703;SDS011;3894;49.700;10.770;2023-04-30T13:07:18;4.20;;;0.43;;
7703;SDS011;3894;49.700;10.770;2023-04-30T13:09:45;2.53;;;0.40;;
7703;SDS011;3894;49.700;10.770;2023-04-30T13:12:10;2.95;;;0.60;;
7703;SDS011;3894;49.700;10.770;2023-04-30T13:14:36;2.92;;;0.50;;
7703;SDS011;3894;49.700;10.770;2023-04-30T13:17:02;2.80;;;0.90;;
7703;SDS011;3894;49.700;10.770;2023-04-30T13:19:29;2.08;;;0.43;;
7703;SDS011;3894;49.700;10.770;2023-04-30T13:21:55;2.85;;;0.40;;
7703;SDS011;3894;49.700;10.770;2023-04-30T13:26:48;2.72;;;0.50;;
7703;SDS011;3894;49.700;10.770;2023-04-30T13:29:14;2.58;;;0.50;;
7703;SDS011;3894;49.700;10.770;2023-04-30T13:31:40;3.30;;;0.50;;
7703;SDS011;3894;49.700;10.770;2023-04-30T13:34:06;2.63;;;0.47;;
7703;SDS011;3894;49.700;10.770;2023-04-30T13:36:32;2.97;;;0.60;;
7703;SDS011;3894;49.700;10.770;2023-04-30T13:38:59;2.75;;;0.50;;
7703;SDS011;3894;49.700;10.770;2023-04-30T13:41:24;2.67;;;0.60;;
7703;SDS011;3894;49.700;10.770;2023-04-30T13:43:50;3.15;;;0.70;;
7703;SDS011;3894;49.700;10.770;2023-04-30T13:46:16;3.28;;;0.70;;
7703;SDS011;3894;49.700;10.770;2023-04-30T13:48:42;3.60;;;0.70;;
7703;SDS011;3894;49.700;10.770;2023-04-30T13:51:12;2.97;;;0.43;;
7703;SDS011;3894;49.700;10.770;2023-04-30T13:53:37;1.95;;;0.38;;
7703;SDS011;3894;49.700;10.770;2023-04-30T13:56:04;4.20;;;0.50;;
7703;SDS011;3894;49.700;10.770;2023-04-30T13:58:30;3.17;;;1.05;;
7703;SDS011;3894;49.700;10.770;2023-04-30T14:00:56;3.17;;;0.47;;
7703;SDS011;3894;49.700;10.770;2023-04-30T14:03:22;3.50;;;0.50;;
7703;SDS011;3894;49.700;10.770;2023-04-30T14:05:47;2.83;;;0.65;;
7703;SDS011;3894;49.700;10.770;2023-04-30T14:08:13;3.00;;;0.70;;
7703;SDS011;3894;49.700;10.770;2023-04-30T14:10:39;3.65;;;0.32;;
7703;SDS011;3894;49.700;10.770;2023-04-30T14:13:04;1.92;;;0.40;;
7703;SDS011;3894;49.700;10.770;2023-04-30T14:15:30;3.75;;;0.70;;
7703;SDS011;3894;49.700;10.770;2023-04-30T14:17:56;3.83;;;0.68;;
7703;SDS011;3894;49.700;10.770;2023-04-30T14:20:22;2.88;;;0.57;;
7703;SDS011;3894;49.700;10.770;2023-04-30T14:22:49;2.55;;;0.77;;
7703;SDS011;3894;49.700;10.770;2023-04-30T14:25:14;2.70;;;0.57;;
7703;SDS011;3894;49.700;10.770;2023-04-30T14:27:40;1.92;;;0.40;;
7703;SDS011;3894;49.700;10.770;2023-04-30T14:30:06;2.30;;;0.47;;
7703;SDS011;3894;49.700;10.770;2023-04-30T14:32:32;3.53;;;0.73;;
7703;SDS011;3894;49.700;10.770;2023-04-30T14:34:57;2.80;;;0.40;;
7703;SDS011;3894;49.700;10.770;2023-04-30T14:37:23;2.03;;;0.30;;
7703;SDS011;3894;49.700;10.770;2023-04-30T14:39:49;2.35;;;0.45;;
7703;SDS011;3894;49.700;10.770;2023-04-30T14:42:15;3.10;;;0.68;;
7703;SDS011;3894;49.700;10.770;2023-04-30T14:44:40;2.60;;;0.52;;
7703;SDS011;3894;49.700;10.770;2023-04-30T14:47:06;3.63;;;0.45;;
7703;SDS011;3894;49.700;10.770;2023-04-30T14:49:31;2.35;;;0.50;;
7703;SDS011;3894;49.700;10.770;2023-04-30T14:51:57;2.80;;;0.75;;
7703;SDS011;3894;49.700;10.770;2023-04-30T14:54:23;3.22;;;0.80;;
7703;SDS011;3894;49.700;10.770;2023-04-30T14:56:48;3.88;;;0.90;;
7703;SDS011;3894;49.700;10.770;2023-04-30T14:59:14;3.13;;;0.50;;
7703;SDS011;3894;49.700;10.770;2023-04-30T15:01:40;2.50;;;0.50;;
7703;SDS011;3894;49.700;10.770;2023-04-30T15:04:06;4.07;;;0.82;;
7703;SDS011;3894;49.700;10.770;2023-04-30T15:06:32;3.55;;;0.82;;
7703;SDS011;3894;49.700;10.770;2023-04-30T15:08:58;2.65;;;0.40;;
7703;SDS011;3894;49.700;10.770;2023-04-30T15:11:24;2.33;;;0.32;;
7703;SDS011;3894;49.700;10.770;2023-04-30T15:13:50;1.95;;;0.30;;
7703;SDS011;3894;49.700;10.770;2023-04-30T15:16:17;3.10;;;0.63;;
7703;SDS011;3894;49.700;10.770;2023-04-30T15:18:42;2.28;;;0.47;;
7703;SDS011;3894;49.700;10.770;2023-04-30T15:21:08;3.13;;;0.45;;
7703;SDS011;3894;49.700;10.770;2023-04-30T15:23:33;3.65;;;0.77;;
7703;SDS011;3894;49.700;10.770;2023-04-30T15:26:02;3.65;;;0.70;;
7703;SDS011;3894;49.700;10.770;2023-04-30T15:28:28;4.05;;;0.80;;
7703;SDS011;3894;49.700;10.770;2023-04-30T15:30:55;3.67;;;0.60;;
7703;SDS011;3894;49.700;10.770;2023-04-30T15:33:21;2.92;;;0.50;;
7703;SDS011;3894;49.700;10.770;2023-04-30T15:35:51;3.15;;;0.55;;
7703;SDS011;3894;49.700;10.770;2023-04-30T15:38:17;2.58;;;0.35;;
7703;SDS011;3894;49.700;10.770;2023-04-30T15:40:42;3.05;;;0.50;;
7703;SDS011;3894;49.700;10.770;2023-04-30T15:43:08;2.75;;;0.32;;
7703;SDS011;3894;49.700;10.770;2023-04-30T15:45:34;3.83;;;0.32;;
7703;SDS011;3894;49.700;10.770;2023-04-30T15:47:59;3.17;;;0.75;;
7703;SDS011;3894;49.700;10.770;2023-04-30T15:50:25;3.20;;;0.43;;
7703;SDS011;3894;49.700;10.770;2023-04-30T15:52:51;3.10;;;0.50;;
7703;SDS011;3894;49.700;10.770;2023-04-30T15:55:17;4.18;;;0.57;;
7703;SDS011;3894;49.700;10.770;2023-04-30T15:57:42;3.45;;;0.45;;
7703;SDS011;3894;49.700;10.770;2023-04-30T16:00:08;3.47;;;0.75;;
7703;SDS011;3894;49.700;10.770;2023-04-30T16:02:35;2.60;;;0.32;;
7703;SDS011;3894;49.700;10.770;2023-04-30T16:05:00;2.40;;;0.50;;
7703;SDS011;3894;49.700;10.770;2023-04-30T16:07:26;2.75;;;0.70;;
7703;SDS011;3894;49.700;10.770;2023-04-30T16:09:51;3.53;;;0.50;;
7703;SDS011;3894;49.700;10.770;2023-04-30T16:12:17;2.90;;;0.63;;
7703;SDS011;3894;49.700;10.770;2023-04-30T16:14:43;3.10;;;0.50;;
7703;SDS011;3894;49.700;10.770;2023-04-30T16:17:08;3.38;;;0.68;;
7703;SDS011;3894;49.700;10.770;2023-04-30T16:19:34;2.60;;;0.52;;
7703;SDS011;3894;49.700;10.770;2023-04-30T16:22:00;2.83;;;0.50;;
7703;SDS011;3894;49.700;10.770;2023-04-30T16:24:26;3.25;;;0.45;;
7703;SDS011;3894;49.700;10.770;2023-04-30T16:26:51;2.72;;;0.50;;